createdAt,value
2018-12-14T00:01:32.051Z,43.27
2018-12-14T00:04:06.627Z,40.03
2018-12-14T00:06:38.878Z,41.53
2018-12-14T00:09:10.959Z,42.47
2018-12-14T00:11:45.494Z,41.10
2018-12-14T00:14:17.751Z,37.27
2018-12-14T00:16:50.323Z,38.03
2018-12-14T00:19:22.914Z,40.10
2018-12-14T00:21:54.909Z,35.07
2018-12-14T00:24:26.991Z,44.17
2018-12-14T00:26:59.587Z,39.07
2018-12-14T00:29:31.660Z,33.30
2018-12-14T00:32:05.961Z,48.33
2018-12-14T00:34:40.133Z,32.53
2018-12-14T00:37:11.960Z,44.03
2018-12-14T00:39:43.872Z,44.57
2018-12-14T00:42:16.705Z,46.97
2018-12-14T00:44:48.901Z,54.93
2018-12-14T00:47:20.581Z,50.87
2018-12-14T00:49:52.771Z,45.87
2018-12-14T00:52:25.004Z,49.20
2018-12-14T00:54:56.697Z,48.23
2018-12-14T00:57:28.588Z,46.90
2018-12-14T01:00:00.864Z,48.00
2018-12-14T01:02:32.915Z,37.63
2018-12-14T01:05:03.059Z,45.53
2018-12-14T01:10:29.623Z,41.87
2018-12-14T01:13:01.621Z,52.20
2018-12-14T01:15:33.870Z,49.37
2018-12-14T01:18:06.204Z,51.03
2018-12-14T01:20:36.406Z,51.00
2018-12-14T01:23:09.124Z,49.03
2018-12-14T01:25:40.897Z,54.03
2018-12-14T01:28:13.656Z,49.30
2018-12-14T01:30:45.383Z,54.93
2018-12-14T01:33:17.587Z,53.90
2018-12-14T01:35:49.802Z,48.77
2018-12-14T01:38:22.109Z,50.30
2018-12-14T01:40:56.456Z,56.33
2018-12-14T01:43:28.744Z,55.10
2018-12-14T01:46:00.655Z,45.07
2018-12-14T01:48:31.007Z,52.77
2018-12-14T01:51:03.205Z,49.80
2018-12-14T01:53:35.598Z,56.30
2018-12-14T01:56:07.622Z,56.87
2018-12-14T01:58:40.017Z,59.13
2018-12-14T02:01:10.259Z,60.93
2018-12-14T02:03:42.575Z,58.67
2018-12-14T02:08:46.294Z,62.43
2018-12-14T02:11:18.084Z,60.53
2018-12-14T02:13:50.231Z,63.00
2018-12-14T02:16:27.139Z,51.03
2018-12-14T02:18:58.732Z,60.77
2018-12-14T02:21:30.718Z,57.20
2018-12-14T02:24:02.971Z,52.23
2018-12-14T02:26:33.468Z,61.30
2018-12-14T02:29:05.599Z,52.40
2018-12-14T02:31:37.824Z,56.90
2018-12-14T02:34:09.798Z,51.73
2018-12-14T02:36:42.077Z,53.30
2018-12-14T02:39:14.799Z,56.67
2018-12-14T02:41:49.246Z,58.33
2018-12-14T02:44:21.212Z,59.90
2018-12-14T02:46:53.776Z,55.23
2018-12-14T02:49:25.907Z,50.53
2018-12-14T02:51:58.603Z,38.17
2018-12-14T02:54:30.502Z,57.00
2018-12-14T02:57:02.920Z,53.90
2018-12-14T02:59:35.068Z,60.50
2018-12-14T03:02:07.433Z,54.40
2018-12-14T03:04:39.513Z,35.80
2018-12-14T03:09:43.209Z,49.03
2018-12-14T03:12:15.619Z,60.13
2018-12-14T03:14:45.663Z,54.33
2018-12-14T03:17:18.117Z,56.07
2018-12-14T03:19:50.692Z,59.80
2018-12-14T03:22:22.656Z,57.37
2018-12-14T03:24:54.989Z,59.73
2018-12-14T03:27:29.763Z,60.70
2018-12-14T03:30:00.393Z,42.40
2018-12-14T03:32:32.392Z,50.20
2018-12-14T03:35:05.181Z,58.00
2018-12-14T03:37:36.821Z,60.40
2018-12-14T03:40:09.175Z,59.13
2018-12-14T03:42:56.232Z,53.97
2018-12-14T03:45:28.873Z,52.07
2018-12-14T03:48:01.317Z,53.40
2018-12-14T03:50:32.920Z,55.27
2018-12-14T03:53:04.834Z,48.13
2018-12-14T03:55:36.643Z,57.53
2018-12-14T03:58:09.331Z,55.87
2018-12-14T04:00:42.220Z,59.70
2018-12-14T04:03:14.350Z,55.53
2018-12-14T04:05:46.626Z,58.10
2018-12-14T04:10:50.543Z,55.37
2018-12-14T04:13:22.789Z,49.97
2018-12-14T04:15:52.962Z,52.10
2018-12-14T04:18:24.984Z,54.40
2018-12-14T04:20:56.866Z,52.90
2018-12-14T04:23:29.243Z,56.10
2018-12-14T04:26:01.371Z,48.67
2018-12-14T04:28:31.775Z,53.47
2018-12-14T04:31:04.416Z,54.37
2018-12-14T04:33:41.206Z,56.47
2018-12-14T04:36:13.676Z,54.87
2018-12-14T04:38:45.864Z,42.07
2018-12-14T04:41:18.265Z,51.83
2018-12-14T04:43:50.073Z,58.17
2018-12-14T04:46:22.449Z,53.70
2018-12-14T04:48:54.726Z,53.03
2018-12-14T04:51:26.690Z,54.37
2018-12-14T04:53:59.004Z,62.30
2018-12-14T04:56:33.503Z,51.93
2018-12-14T04:59:05.985Z,58.73
2018-12-14T05:01:38.399Z,49.23
2018-12-14T05:04:10.569Z,48.37
2018-12-14T05:06:42.771Z,50.17
2018-12-14T05:09:15.433Z,54.80
2018-12-14T05:11:47.305Z,55.10
2018-12-14T05:14:20.726Z,56.73
2018-12-14T05:16:53.678Z,52.67
2018-12-14T05:19:27.053Z,60.67
2018-12-14T05:22:00.399Z,52.17
2018-12-14T05:24:31.088Z,54.67
2018-12-14T05:27:02.589Z,54.90
2018-12-14T05:29:35.050Z,53.60
2018-12-14T05:32:07.638Z,49.87
2018-12-14T05:34:40.432Z,56.00
2018-12-14T05:37:13.202Z,57.93
2018-12-14T05:39:44.809Z,44.57
2018-12-14T05:42:21.622Z,42.80
2018-12-14T05:44:57.729Z,55.80
2018-12-14T05:47:30.092Z,57.30
2018-12-14T05:50:01.972Z,54.03
2018-12-14T05:52:34.938Z,57.83
2018-12-14T05:55:08.886Z,61.73
2018-12-14T05:57:44.127Z,54.70
2018-12-14T06:00:15.030Z,51.87
2018-12-14T06:02:50.537Z,50.93
2018-12-14T06:05:23.275Z,50.47
2018-12-14T06:07:55.438Z,56.27
2018-12-14T06:13:01.694Z,52.93
2018-12-14T06:15:42.096Z,55.60
2018-12-14T06:18:14.807Z,54.80
2018-12-14T06:20:47.178Z,52.50
2018-12-14T06:23:19.929Z,58.43
2018-12-14T06:25:51.807Z,55.27
2018-12-14T06:28:22.044Z,53.53
2018-12-14T06:30:54.341Z,57.73
2018-12-14T06:33:25.079Z,54.03
2018-12-14T06:35:57.001Z,52.30
2018-12-14T06:38:29.064Z,48.83
2018-12-14T06:41:02.094Z,59.37
2018-12-14T06:43:33.902Z,60.30
2018-12-14T06:46:06.005Z,57.53
2018-12-14T06:48:38.543Z,55.37
2018-12-14T06:51:11.096Z,63.53
2018-12-14T06:53:42.886Z,51.93
2018-12-14T06:56:15.280Z,57.60
2018-12-14T06:58:50.094Z,55.17
2018-12-14T07:01:20.500Z,60.70
2018-12-14T07:03:51.141Z,51.63
2018-12-14T07:06:22.976Z,55.97
2018-12-14T07:08:55.593Z,50.77
2018-12-14T07:14:00.293Z,60.23
2018-12-14T07:16:30.660Z,52.40
2018-12-14T07:19:02.573Z,64.83
2018-12-14T07:21:34.770Z,62.43
2018-12-14T07:24:07.195Z,59.97
2018-12-14T07:26:40.352Z,56.27
2018-12-14T07:29:12.867Z,56.63
2018-12-14T07:34:39.433Z,65.27
2018-12-14T07:37:12.152Z,49.03
2018-12-14T07:39:44.323Z,57.50
2018-12-14T07:42:16.755Z,61.23
2018-12-14T07:44:49.053Z,51.83
2018-12-14T07:47:22.208Z,53.30
2018-12-14T07:49:54.340Z,66.77
2018-12-14T07:52:26.500Z,42.07
2018-12-14T07:54:56.775Z,54.50
2018-12-14T07:57:29.938Z,57.50
2018-12-14T08:00:02.767Z,67.13
2018-12-14T08:02:37.569Z,51.13
2018-12-14T08:05:09.703Z,56.73
2018-12-14T08:07:40.018Z,59.03
2018-12-14T08:10:12.848Z,58.43
2018-12-14T08:12:46.292Z,57.03
2018-12-14T08:15:20.508Z,58.80
2018-12-14T08:17:53.540Z,61.23
2018-12-14T08:20:26.291Z,60.03
2018-12-14T08:22:59.110Z,60.53
2018-12-14T08:25:31.807Z,66.10
2018-12-14T08:28:04.390Z,59.10
2018-12-14T08:30:37.599Z,68.00
2018-12-14T08:33:09.517Z,52.50
2018-12-14T08:35:41.934Z,58.20
2018-12-14T08:38:15.209Z,59.70
2018-12-14T08:40:47.886Z,56.23
2018-12-14T08:43:19.560Z,60.80
2018-12-14T08:45:52.110Z,47.13
2018-12-14T08:48:24.528Z,63.43
2018-12-14T08:50:57.965Z,59.57
2018-12-14T08:53:37.582Z,63.93
2018-12-14T08:56:14.649Z,64.43
2018-12-14T08:58:48.077Z,65.27
2018-12-14T09:01:21.432Z,59.93
2018-12-14T09:03:55.259Z,55.43
2018-12-14T09:06:27.351Z,56.80
2018-12-14T09:09:04.813Z,60.37
2018-12-14T09:11:37.007Z,52.73
2018-12-14T09:14:12.608Z,57.40
2018-12-14T09:19:16.870Z,64.07
2018-12-14T09:21:49.701Z,57.83
2018-12-14T09:24:21.920Z,61.73
2018-12-14T09:26:54.603Z,59.10
2018-12-14T09:29:28.030Z,55.70
2018-12-14T09:32:00.504Z,59.23
2018-12-14T09:34:33.085Z,53.67
2018-12-14T09:37:05.011Z,61.37
2018-12-14T09:39:37.158Z,62.70
2018-12-14T09:42:09.585Z,56.83
2018-12-14T09:44:41.693Z,62.93
2018-12-14T09:47:14.099Z,60.53
2018-12-14T09:49:49.559Z,53.73
2018-12-14T09:52:21.678Z,55.33
2018-12-14T09:54:53.743Z,53.57
2018-12-14T09:57:23.983Z,62.87
2018-12-14T09:59:57.229Z,53.37
2018-12-14T10:02:29.813Z,63.17
2018-12-14T10:05:02.187Z,58.33
2018-12-14T10:07:34.525Z,49.93
2018-12-14T10:10:09.017Z,55.87
2018-12-14T10:12:41.022Z,53.63
2018-12-14T10:15:13.158Z,41.90
2018-12-14T10:17:48.340Z,54.20
2018-12-14T10:20:20.312Z,47.90
2018-12-14T10:22:52.178Z,54.00
2018-12-14T10:25:23.989Z,52.13
2018-12-14T10:27:56.476Z,50.00
2018-12-14T10:30:28.428Z,53.17
2018-12-14T10:33:04.142Z,54.40
2018-12-14T10:35:36.005Z,55.63
2018-12-14T10:38:08.655Z,55.10
2018-12-14T10:40:40.427Z,44.20
2018-12-14T10:43:12.509Z,52.50
2018-12-14T10:45:49.920Z,46.60
2018-12-14T10:48:23.427Z,54.77
2018-12-14T10:50:56.024Z,51.90
2018-12-14T10:53:28.034Z,49.53
2018-12-14T10:56:02.041Z,41.57
2018-12-14T10:58:37.672Z,47.80
2018-12-14T11:01:14.673Z,49.00
2018-12-14T11:03:48.419Z,46.90
2018-12-14T11:06:23.041Z,44.07
2018-12-14T11:23:30.761Z,44.57
2018-12-14T11:26:05.278Z,48.27
2018-12-14T11:28:36.929Z,47.57
2018-12-14T11:31:09.157Z,46.77
2018-12-14T11:33:41.350Z,41.60
2018-12-14T11:36:13.950Z,48.07
2018-12-14T11:38:45.687Z,41.93
2018-12-14T11:41:18.611Z,48.93
2018-12-14T11:43:49.263Z,47.43
2018-12-14T11:46:20.993Z,55.20
2018-12-14T11:48:51.272Z,37.70
2018-12-14T11:51:24.444Z,47.10
2018-12-14T11:53:56.845Z,49.73
2018-12-14T11:56:28.933Z,41.63
2018-12-14T11:59:01.212Z,42.03
2018-12-14T12:01:33.604Z,47.70
2018-12-14T12:04:05.804Z,47.23
2018-12-14T12:06:38.376Z,46.20
2018-12-14T12:09:12.046Z,46.20
2018-12-14T12:11:44.348Z,45.70
2018-12-14T12:14:16.671Z,43.47
2018-12-14T12:16:48.877Z,44.20
2018-12-14T12:19:21.044Z,40.50
2018-12-14T12:21:52.990Z,42.10
2018-12-14T12:24:25.348Z,41.97
2018-12-14T12:26:57.159Z,41.23
2018-12-14T12:29:32.000Z,44.77
2018-12-14T12:32:03.821Z,39.53
2018-12-14T12:34:38.405Z,39.07
2018-12-14T12:37:10.118Z,45.40
2018-12-14T12:39:49.688Z,45.30
2018-12-14T12:42:22.094Z,44.43
2018-12-14T12:44:56.087Z,43.30
2018-12-14T12:47:28.500Z,44.30
2018-12-14T12:49:59.703Z,35.37
2018-12-14T12:52:31.959Z,42.97
2018-12-14T12:55:02.392Z,38.80
2018-12-14T12:57:36.969Z,45.33
2018-12-14T13:00:10.164Z,43.23
2018-12-14T13:02:42.531Z,45.03
2018-12-14T13:05:14.268Z,47.23
2018-12-14T13:07:46.507Z,50.70
2018-12-14T13:10:18.627Z,49.67
2018-12-14T13:12:50.723Z,49.90
2018-12-14T13:15:22.943Z,40.70
2018-12-14T13:17:55.421Z,39.53
2018-12-14T13:20:27.382Z,48.80
2018-12-14T13:22:59.397Z,45.40
2018-12-14T13:28:01.262Z,40.80
2018-12-14T13:30:33.863Z,40.70
2018-12-14T13:33:04.855Z,44.40
2018-12-14T13:35:36.763Z,41.87
2018-12-14T13:38:07.184Z,43.60
2018-12-14T13:40:39.257Z,39.07
2018-12-14T13:43:11.494Z,25.97
2018-12-14T13:45:43.918Z,43.60
2018-12-14T13:48:14.197Z,47.83
2018-12-14T13:50:46.321Z,44.83
2018-12-14T13:53:18.408Z,44.63
2018-12-14T13:55:50.762Z,44.27
2018-12-14T13:58:22.917Z,43.00
2018-12-14T14:00:54.522Z,40.87
2018-12-14T14:03:27.003Z,38.13
2018-12-14T14:05:59.596Z,44.97
2018-12-14T14:08:31.934Z,42.80
2018-12-14T14:11:03.736Z,40.63
2018-12-14T14:13:35.909Z,41.07
2018-12-14T14:16:08.323Z,42.70
2018-12-14T14:18:42.873Z,43.40
2018-12-14T14:21:15.156Z,44.80
2018-12-14T14:23:45.169Z,44.27
2018-12-14T14:31:15.538Z,47.27
2018-12-14T14:33:47.662Z,36.70
2018-12-14T14:36:22.309Z,46.67
2018-12-14T14:38:54.891Z,39.30
2018-12-14T14:41:26.999Z,41.70
2018-12-14T14:43:59.714Z,47.67
2018-12-14T14:46:31.740Z,43.30
2018-12-14T14:49:04.308Z,46.30
2018-12-14T14:51:37.787Z,38.90
2018-12-14T14:54:07.920Z,45.63
2018-12-14T14:56:40.102Z,36.70
2018-12-14T14:59:12.626Z,43.87
2018-12-14T15:01:44.757Z,50.83
2018-12-14T15:04:16.804Z,49.37
2018-12-14T15:06:50.071Z,48.83
2018-12-14T15:09:22.093Z,48.93
2018-12-14T15:11:54.065Z,55.30
2018-12-14T15:14:26.130Z,50.23
2018-12-14T15:16:58.757Z,54.37
2018-12-14T15:19:30.919Z,52.97
2018-12-14T15:22:04.661Z,53.43
2018-12-14T15:24:37.147Z,57.53
2018-12-14T15:27:09.018Z,48.97
2018-12-14T15:32:12.864Z,49.53
2018-12-14T15:34:45.875Z,48.77
2018-12-14T15:37:18.349Z,44.17
2018-12-14T15:39:50.357Z,63.67
2018-12-14T15:42:23.603Z,56.93
2018-12-14T15:44:57.652Z,53.50
2018-12-14T15:47:31.615Z,58.57
2018-12-14T15:50:04.577Z,57.30
2018-12-14T15:52:44.748Z,61.23
2018-12-14T15:55:17.700Z,46.27
2018-12-14T15:57:50.017Z,57.53
2018-12-14T16:00:22.514Z,58.93
2018-12-14T16:02:55.871Z,61.97
2018-12-14T16:05:29.251Z,69.00
2018-12-14T16:08:01.595Z,57.80
2018-12-14T16:10:33.894Z,65.63
2018-12-14T16:13:06.304Z,58.77
2018-12-14T16:15:38.348Z,58.87
2018-12-14T16:18:12.816Z,60.00
2018-12-14T16:20:45.674Z,69.77
2018-12-14T16:23:17.894Z,65.27
2018-12-14T16:25:50.592Z,40.07
2018-12-14T16:28:21.300Z,57.53
2018-12-14T16:30:54.251Z,63.27
2018-12-14T16:33:26.647Z,57.67
2018-12-14T16:35:58.837Z,74.40
2018-12-14T16:38:30.912Z,79.60
2018-12-14T16:41:03.291Z,68.93
2018-12-14T16:43:35.559Z,84.00
2018-12-14T16:46:07.741Z,54.53
2018-12-14T16:48:39.832Z,66.67
2018-12-14T16:51:10.027Z,68.90
2018-12-14T16:53:47.560Z,71.53
2018-12-14T16:56:18.153Z,68.97
2018-12-14T16:58:50.111Z,63.23
2018-12-14T17:01:25.509Z,66.00
2018-12-14T17:03:57.760Z,58.13
2018-12-14T17:06:28.232Z,42.33
2018-12-14T17:09:00.279Z,58.00
2018-12-14T17:11:36.903Z,58.90
2018-12-14T17:14:08.746Z,70.33
2018-12-14T17:16:38.772Z,71.27
2018-12-14T17:19:09.084Z,68.60
2018-12-14T17:21:41.669Z,78.50
2018-12-14T17:24:11.957Z,79.03
2018-12-14T17:26:43.744Z,68.77
2018-12-14T17:29:14.075Z,76.30
2018-12-14T17:31:48.601Z,82.57
2018-12-14T17:34:20.427Z,60.87
2018-12-14T17:36:52.705Z,67.23
2018-12-14T17:39:24.891Z,62.67
2018-12-14T17:41:57.187Z,76.60
2018-12-14T17:44:29.835Z,75.00
2018-12-14T17:47:12.451Z,75.77
2018-12-14T17:49:43.745Z,75.97
2018-12-14T17:52:18.156Z,77.60
2018-12-14T17:54:51.698Z,78.37
2018-12-14T17:57:23.888Z,82.80
2018-12-14T17:59:56.650Z,58.00
2018-12-14T18:02:29.825Z,75.97
2018-12-14T18:05:03.927Z,78.27
2018-12-14T18:07:36.652Z,77.70
2018-12-14T18:10:08.787Z,82.30
2018-12-14T18:12:40.790Z,68.97
2018-12-14T18:15:13.569Z,72.40
2018-12-14T18:17:45.257Z,78.73
2018-12-14T18:20:18.170Z,69.10
2018-12-14T18:22:50.800Z,67.13
2018-12-14T18:25:23.608Z,77.07
2018-12-14T18:27:55.749Z,83.73
2018-12-14T18:30:28.418Z,81.33
2018-12-14T18:38:04.671Z,81.40
2018-12-14T18:40:36.905Z,70.70
2018-12-14T18:43:07.460Z,59.90
2018-12-14T18:45:39.191Z,81.77
2018-12-14T18:48:12.591Z,81.33
2018-12-14T18:50:44.763Z,88.40
2018-12-14T18:53:16.990Z,78.67
2018-12-14T18:55:49.201Z,80.97
2018-12-14T18:58:21.420Z,89.30
2018-12-14T19:00:56.049Z,82.83
2018-12-14T19:06:21.097Z,78.17
2018-12-14T19:08:53.345Z,86.10
2018-12-14T19:11:25.727Z,81.33
2018-12-14T19:13:57.592Z,77.90
2018-12-14T19:16:30.059Z,91.00
2018-12-14T19:19:02.065Z,77.43
2018-12-14T19:21:33.932Z,85.07
2018-12-14T19:24:06.390Z,79.83
2018-12-14T19:26:38.306Z,93.20
2018-12-14T19:29:11.074Z,81.87
2018-12-14T19:31:43.430Z,83.60
2018-12-14T19:34:13.811Z,85.43
2018-12-14T19:36:45.807Z,83.73
2018-12-14T19:39:18.391Z,86.67
2018-12-14T19:41:50.157Z,74.10
2018-12-14T19:44:20.616Z,84.43
2018-12-14T19:46:52.771Z,84.27
2018-12-14T19:49:22.736Z,83.23
2018-12-14T19:51:55.173Z,71.40
2018-12-14T19:54:27.410Z,67.20
2018-12-14T19:56:59.438Z,85.90
2018-12-14T19:59:31.658Z,75.40
2018-12-14T20:02:04.208Z,81.53
2018-12-14T20:04:36.067Z,78.00
2018-12-14T20:07:10.391Z,88.30
2018-12-14T20:09:44.808Z,87.27
2018-12-14T20:12:19.370Z,81.77
2018-12-14T20:14:51.477Z,67.13
2018-12-14T20:17:26.523Z,74.83
2018-12-14T20:19:59.686Z,79.60
2018-12-14T20:22:32.590Z,84.73
2018-12-14T20:25:06.572Z,75.73
2018-12-14T20:27:39.244Z,84.33
2018-12-14T20:30:12.738Z,58.50
2018-12-14T20:32:46.182Z,79.37
2018-12-14T20:35:19.577Z,76.33
2018-12-14T20:37:52.807Z,65.93
2018-12-14T20:40:30.711Z,79.80
2018-12-14T20:43:03.241Z,77.73
2018-12-14T20:45:43.867Z,75.13
2018-12-14T20:48:17.430Z,78.03
2018-12-14T20:50:49.787Z,65.10
2018-12-14T20:53:22.228Z,54.70
2018-12-14T20:55:55.271Z,78.50
2018-12-14T20:58:27.574Z,72.03
2018-12-14T21:01:00.906Z,69.97
2018-12-14T21:03:33.381Z,84.80
2018-12-14T21:06:09.343Z,89.90
2018-12-14T21:08:42.919Z,80.23
2018-12-14T21:11:18.446Z,81.57
2018-12-14T21:13:50.541Z,88.20
2018-12-14T21:16:25.966Z,70.73
2018-12-14T21:18:56.801Z,82.20
2018-12-14T21:21:30.087Z,83.67
2018-12-14T21:24:02.309Z,79.47
2018-12-14T21:26:39.622Z,85.53
2018-12-14T21:38:06.822Z,80.03
2018-12-14T21:40:38.835Z,90.53
2018-12-14T21:43:11.377Z,70.87
2018-12-14T21:45:43.124Z,84.37
2018-12-14T21:48:15.564Z,79.93
2018-12-14T21:50:48.464Z,89.03
2018-12-14T21:53:20.576Z,89.90
2018-12-14T21:55:53.005Z,86.23
2018-12-14T21:58:24.966Z,86.23
2018-12-14T22:01:01.708Z,85.87
2018-12-14T22:03:34.342Z,84.63
2018-12-14T22:06:06.531Z,89.67
2018-12-14T22:08:36.620Z,86.83
2018-12-14T22:11:09.002Z,80.87
2018-12-14T22:13:41.809Z,88.70
2018-12-14T22:16:13.428Z,78.53
2018-12-14T22:18:45.699Z,76.93
2018-12-14T22:21:17.974Z,94.07
2018-12-14T22:23:50.193Z,82.47
2018-12-14T22:26:23.137Z,82.53
2018-12-14T22:28:55.211Z,78.17
2018-12-14T22:31:27.904Z,86.50
2018-12-14T22:34:00.994Z,70.80
2018-12-14T22:36:34.441Z,81.63
2018-12-14T22:39:07.543Z,76.73
2018-12-14T22:41:40.751Z,75.93
2018-12-14T22:44:11.831Z,74.97
2018-12-14T22:46:45.577Z,82.10
2018-12-14T22:49:16.738Z,79.13
2018-12-14T22:51:49.317Z,77.37
2018-12-14T22:54:32.137Z,77.73
2018-12-14T22:57:04.713Z,76.60
2018-12-14T22:59:37.355Z,71.67
2018-12-14T23:02:09.483Z,72.60
2018-12-14T23:04:41.783Z,72.30
2018-12-14T23:07:13.669Z,74.13
2018-12-14T23:09:45.956Z,76.97
2018-12-14T23:12:19.138Z,81.90
2018-12-14T23:14:52.649Z,76.53
2018-12-14T23:17:26.976Z,71.37
2018-12-14T23:19:58.919Z,75.17
2018-12-14T23:22:31.524Z,74.37
2018-12-14T23:25:03.260Z,68.70
2018-12-14T23:27:35.871Z,76.17
2018-12-14T23:30:10.869Z,66.57
2018-12-14T23:32:42.869Z,62.63
2018-12-14T23:35:15.377Z,75.83
2018-12-14T23:37:47.999Z,71.03
2018-12-14T23:40:21.034Z,72.23
2018-12-14T23:45:24.120Z,55.57
2018-12-14T23:47:56.067Z,68.07
2018-12-14T23:50:28.476Z,57.93
2018-12-14T23:53:00.967Z,58.57
2018-12-14T23:55:43.077Z,59.87
2018-12-14T23:58:15.565Z,51.70
